sensor_id;sensor_type;location;lat;lon;timestamp;temperature;humidity
78696;SHT31;68030;51.980;5.646;2024-02-15T00:02:00;15.5;73.8
78696;SHT31;68030;51.980;5.646;2024-02-15T00:04:29;15.5;73.7
78696;SHT31;68030;51.980;5.646;2024-02-15T00:06:58;15.5;73.6
78696;SHT31;68030;51.980;5.646;2024-02-15T00:09:28;15.5;73.5
78696;SHT31;68030;51.980;5.646;2024-02-15T00:11:57;15.5;73.4
78696;SHT31;68030;51.980;5.646;2024-02-15T00:14:27;15.6;73.4
78696;SHT31;68030;51.980;5.646;2024-02-15T00:16:57;15.6;73.3
78696;SHT31;68030;51.980;5.646;2024-02-15T00:19:26;15.6;73.2
78696;SHT31;68030;51.980;5.646;2024-02-15T00:21:56;15.6;73.2
78696;SHT31;68030;51.980;5.646;2024-02-15T00:24:24;15.6;73.1
78696;SHT31;68030;51.980;5.646;2024-02-15T00:26:53;15.6;73.1
78696;SHT31;68030;51.980;5.646;2024-02-15T00:29:22;15.6;73.1
78696;SHT31;68030;51.980;5.646;2024-02-15T00:31:51;15.6;72.9
78696;SHT31;68030;51.980;5.646;2024-02-15T00:34:19;15.6;72.9
78696;SHT31;68030;51.980;5.646;2024-02-15T00:36:48;15.6;72.8
78696;SHT31;68030;51.980;5.646;2024-02-15T00:39:18;15.6;72.8
78696;SHT31;68030;51.980;5.646;2024-02-15T00:41:47;15.7;72.9
78696;SHT31;68030;51.980;5.646;2024-02-15T00:44:16;15.7;72.9
78696;SHT31;68030;51.980;5.646;2024-02-15T00:46:46;15.7;72.9
78696;SHT31;68030;51.980;5.646;2024-02-15T00:49:15;15.7;72.9
78696;SHT31;68030;51.980;5.646;2024-02-15T00:51:47;15.6;73.1
78696;SHT31;68030;51.980;5.646;2024-02-15T00:54:15;15.6;73.0
78696;SHT31;68030;51.980;5.646;2024-02-15T00:56:44;15.6;73.1
78696;SHT31;68030;51.980;5.646;2024-02-15T00:59:14;15.6;73.1
78696;SHT31;68030;51.980;5.646;2024-02-15T01:01:43;15.6;73.2
78696;SHT31;68030;51.980;5.646;2024-02-15T01:04:13;15.6;73.3
78696;SHT31;68030;51.980;5.646;2024-02-15T01:06:41;15.6;73.4
78696;SHT31;68030;51.980;5.646;2024-02-15T01:09:10;15.5;73.4
78696;SHT31;68030;51.980;5.646;2024-02-15T01:11:40;15.5;73.5
78696;SHT31;68030;51.980;5.646;2024-02-15T01:14:08;15.5;73.5
78696;SHT31;68030;51.980;5.646;2024-02-15T01:16:37;15.5;73.6
78696;SHT31;68030;51.980;5.646;2024-02-15T01:19:05;15.5;73.6
78696;SHT31;68030;51.980;5.646;2024-02-15T01:21:34;15.5;73.6
78696;SHT31;68030;51.980;5.646;2024-02-15T01:24:03;15.5;73.7
78696;SHT31;68030;51.980;5.646;2024-02-15T01:26:32;15.5;73.8
78696;SHT31;68030;51.980;5.646;2024-02-15T01:29:01;15.4;73.8
78696;SHT31;68030;51.980;5.646;2024-02-15T01:31:30;15.4;73.8
78696;SHT31;68030;51.980;5.646;2024-02-15T01:33:58;15.4;73.9
78696;SHT31;68030;51.980;5.646;2024-02-15T01:36:27;15.4;73.9
78696;SHT31;68030;51.980;5.646;2024-02-15T01:38:55;15.4;73.9
78696;SHT31;68030;51.980;5.646;2024-02-15T01:41:24;15.4;73.9
78696;SHT31;68030;51.980;5.646;2024-02-15T01:43:52;15.4;73.9
78696;SHT31;68030;51.980;5.646;2024-02-15T01:46:21;15.4;73.8
78696;SHT31;68030;51.980;5.646;2024-02-15T01:48:51;15.4;73.8
78696;SHT31;68030;51.980;5.646;2024-02-15T01:51:20;15.4;73.8
78696;SHT31;68030;51.980;5.646;2024-02-15T01:53:50;15.4;73.7
78696;SHT31;68030;51.980;5.646;2024-02-15T01:56:19;15.4;73.8
78696;SHT31;68030;51.980;5.646;2024-02-15T01:58:48;15.5;73.7
78696;SHT31;68030;51.980;5.646;2024-02-15T02:01:18;15.5;73.8
78696;SHT31;68030;51.980;5.646;2024-02-15T02:03:50;15.5;73.6
78696;SHT31;68030;51.980;5.646;2024-02-15T02:06:21;15.5;73.5
78696;SHT31;68030;51.980;5.646;2024-02-15T02:08:50;15.5;73.4
78696;SHT31;68030;51.980;5.646;2024-02-15T02:11:23;15.5;73.4
78696;SHT31;68030;51.980;5.646;2024-02-15T02:13:51;15.5;73.4
78696;SHT31;68030;51.980;5.646;2024-02-15T02:16:26;15.5;73.3
78696;SHT31;68030;51.980;5.646;2024-02-15T02:18:58;15.5;73.3
78696;SHT31;68030;51.980;5.646;2024-02-15T02:21:28;15.5;73.3
78696;SHT31;68030;51.980;5.646;2024-02-15T02:23:58;15.5;73.2
78696;SHT31;68030;51.980;5.646;2024-02-15T02:26:29;15.5;73.2
78696;SHT31;68030;51.980;5.646;2024-02-15T02:28:58;15.5;73.2
78696;SHT31;68030;51.980;5.646;2024-02-15T02:31:26;15.5;73.1
78696;SHT31;68030;51.980;5.646;2024-02-15T02:33:55;15.5;73.1
78696;SHT31;68030;51.980;5.646;2024-02-15T02:36:25;15.5;72.9
78696;SHT31;68030;51.980;5.646;2024-02-15T02:38:53;15.5;72.8
78696;SHT31;68030;51.980;5.646;2024-02-15T02:41:23;15.5;72.7
78696;SHT31;68030;51.980;5.646;2024-02-15T02:43:52;15.5;72.6
78696;SHT31;68030;51.980;5.646;2024-02-15T02:46:21;15.5;72.7
78696;SHT31;68030;51.980;5.646;2024-02-15T02:48:50;15.5;72.6
78696;SHT31;68030;51.980;5.646;2024-02-15T02:51:18;15.5;72.5
78696;SHT31;68030;51.980;5.646;2024-02-15T02:53:47;15.5;72.6
78696;SHT31;68030;51.980;5.646;2024-02-15T02:56:15;15.5;72.6
78696;SHT31;68030;51.980;5.646;2024-02-15T02:58:45;15.4;72.7
78696;SHT31;68030;51.980;5.646;2024-02-15T03:01:13;15.4;72.7
78696;SHT31;68030;51.980;5.646;2024-02-15T03:03:42;15.4;72.7
78696;SHT31;68030;51.980;5.646;2024-02-15T03:06:10;15.4;72.6
78696;SHT31;68030;51.980;5.646;2024-02-15T03:08:40;15.4;72.7
78696;SHT31;68030;51.980;5.646;2024-02-15T03:11:09;15.4;72.7
78696;SHT31;68030;51.980;5.646;2024-02-15T03:13:37;15.4;72.8
78696;SHT31;68030;51.980;5.646;2024-02-15T03:16:06;15.4;72.7
78696;SHT31;68030;51.980;5.646;2024-02-15T03:18:37;15.4;72.7
78696;SHT31;68030;51.980;5.646;2024-02-15T03:21:07;15.4;72.7
78696;SHT31;68030;51.980;5.646;2024-02-15T03:23:37;15.4;72.7
78696;SHT31;68030;51.980;5.646;2024-02-15T03:26:08;15.4;72.6
78696;SHT31;68030;51.980;5.646;2024-02-15T03:28:38;15.4;72.5
78696;SHT31;68030;51.980;5.646;2024-02-15T03:31:08;15.4;72.4
78696;SHT31;68030;51.980;5.646;2024-02-15T03:33:37;15.4;72.5
78696;SHT31;68030;51.980;5.646;2024-02-15T03:36:06;15.4;72.6
78696;SHT31;68030;51.980;5.646;2024-02-15T03:38:36;15.4;72.5
78696;SHT31;68030;51.980;5.646;2024-02-15T03:41:06;15.4;72.5
78696;SHT31;68030;51.980;5.646;2024-02-15T03:43:35;15.4;72.4
78696;SHT31;68030;51.980;5.646;2024-02-15T03:46:05;15.4;72.3
78696;SHT31;68030;51.980;5.646;2024-02-15T03:48:35;15.4;72.3
78696;SHT31;68030;51.980;5.646;2024-02-15T03:51:04;15.4;72.3
78696;SHT31;68030;51.980;5.646;2024-02-15T03:53:33;15.4;72.2
78696;SHT31;68030;51.980;5.646;2024-02-15T03:56:04;15.4;72.3
78696;SHT31;68030;51.980;5.646;2024-02-15T03:58:33;15.4;72.3
78696;SHT31;68030;51.980;5.646;2024-02-15T04:01:04;15.3;72.3
78696;SHT31;68030;51.980;5.646;2024-02-15T04:03:36;15.3;72.2
78696;SHT31;68030;51.980;5.646;2024-02-15T04:06:05;15.3;72.2
78696;SHT31;68030;51.980;5.646;2024-02-15T04:08:35;15.3;72.2
78696;SHT31;68030;51.980;5.646;2024-02-15T04:11:05;15.3;72.3
78696;SHT31;68030;51.980;5.646;2024-02-15T04:13:35;15.3;72.3
78696;SHT31;68030;51.980;5.646;2024-02-15T04:16:04;15.3;72.4
78696;SHT31;68030;51.980;5.646;2024-02-15T04:18:33;15.3;72.6
78696;SHT31;68030;51.980;5.646;2024-02-15T04:21:01;15.2;72.6
78696;SHT31;68030;51.980;5.646;2024-02-15T04:23:32;15.2;72.7
78696;SHT31;68030;51.980;5.646;2024-02-15T04:26:01;15.2;72.7
78696;SHT31;68030;51.980;5.646;2024-02-15T04:28:29;15.2;72.9
78696;SHT31;68030;51.980;5.646;2024-02-15T04:30:59;15.2;73.0
78696;SHT31;68030;51.980;5.646;2024-02-15T04:33:28;15.2;73.1
78696;SHT31;68030;51.980;5.646;2024-02-15T04:35:56;15.2;73.2
78696;SHT31;68030;51.980;5.646;2024-02-15T04:38:27;15.1;73.3
78696;SHT31;68030;51.980;5.646;2024-02-15T04:40:55;15.1;73.4
78696;SHT31;68030;51.980;5.646;2024-02-15T04:43:26;15.1;73.4
78696;SHT31;68030;51.980;5.646;2024-02-15T04:45:56;15.1;73.5
78696;SHT31;68030;51.980;5.646;2024-02-15T04:48:25;15.2;73.4
78696;SHT31;68030;51.980;5.646;2024-02-15T04:50:55;15.2;73.5
78696;SHT31;68030;51.980;5.646;2024-02-15T04:53:26;15.2;73.4
78696;SHT31;68030;51.980;5.646;2024-02-15T04:55:57;15.2;73.5
78696;SHT31;68030;51.980;5.646;2024-02-15T04:58:27;15.2;73.5
78696;SHT31;68030;51.980;5.646;2024-02-15T05:00:56;15.2;73.6
78696;SHT31;68030;51.980;5.646;2024-02-15T05:03:26;15.2;73.6
78696;SHT31;68030;51.980;5.646;2024-02-15T05:05:57;15.2;73.7
78696;SHT31;68030;51.980;5.646;2024-02-15T05:08:25;15.2;73.8
78696;SHT31;68030;51.980;5.646;2024-02-15T05:10:58;15.1;73.9
78696;SHT31;68030;51.980;5.646;2024-02-15T05:13:29;15.1;74.0
78696;SHT31;68030;51.980;5.646;2024-02-15T05:15:57;15.1;74.0
78696;SHT31;68030;51.980;5.646;2024-02-15T05:18:26;15.1;74.0
78696;SHT31;68030;51.980;5.646;2024-02-15T05:20:57;15.1;74.1
78696;SHT31;68030;51.980;5.646;2024-02-15T05:23:26;15.1;74.1
78696;SHT31;68030;51.980;5.646;2024-02-15T05:25:54;15.1;74.2
78696;SHT31;68030;51.980;5.646;2024-02-15T05:28:26;15.1;74.3
78696;SHT31;68030;51.980;5.646;2024-02-15T05:31:10;15.1;74.4
78696;SHT31;68030;51.980;5.646;2024-02-15T05:33:39;15.1;74.6
78696;SHT31;68030;51.980;5.646;2024-02-15T05:36:10;15.0;74.7
78696;SHT31;68030;51.980;5.646;2024-02-15T05:38:40;15.0;74.9
78696;SHT31;68030;51.980;5.646;2024-02-15T05:41:12;15.0;75.1
78696;SHT31;68030;51.980;5.646;2024-02-15T05:43:40;15.0;75.2
78696;SHT31;68030;51.980;5.646;2024-02-15T05:46:10;15.0;75.2
78696;SHT31;68030;51.980;5.646;2024-02-15T05:48:42;15.0;75.4
78696;SHT31;68030;51.980;5.646;2024-02-15T05:51:11;14.9;75.4
78696;SHT31;68030;51.980;5.646;2024-02-15T05:53:39;14.9;75.5
78696;SHT31;68030;51.980;5.646;2024-02-15T05:56:09;14.9;75.5
78696;SHT31;68030;51.980;5.646;2024-02-15T05:58:39;14.9;75.4
78696;SHT31;68030;51.980;5.646;2024-02-15T06:01:08;14.9;75.4
78696;SHT31;68030;51.980;5.646;2024-02-15T06:03:39;14.9;75.3
78696;SHT31;68030;51.980;5.646;2024-02-15T06:06:10;14.9;75.4
78696;SHT31;68030;51.980;5.646;2024-02-15T06:08:39;15.0;75.4
78696;SHT31;68030;51.980;5.646;2024-02-15T06:11:08;15.0;75.5
78696;SHT31;68030;51.980;5.646;2024-02-15T06:13:37;15.0;75.6
78696;SHT31;68030;51.980;5.646;2024-02-15T06:16:06;15.0;75.6
78696;SHT31;68030;51.980;5.646;2024-02-15T06:18:36;15.0;75.5
78696;SHT31;68030;51.980;5.646;2024-02-15T06:21:05;15.0;75.4
78696;SHT31;68030;51.980;5.646;2024-02-15T06:23:35;15.0;75.4
78696;SHT31;68030;51.980;5.646;2024-02-15T06:26:03;15.0;75.3
78696;SHT31;68030;51.980;5.646;2024-02-15T06:28:32;15.0;75.2
78696;SHT31;68030;51.980;5.646;2024-02-15T06:32:20;15.1;75.1
78696;SHT31;68030;51.980;5.646;2024-02-15T06:36:19;15.1;75.0
78696;SHT31;68030;51.980;5.646;2024-02-15T06:39:04;15.1;75.0
78696;SHT31;68030;51.980;5.646;2024-02-15T06:41:49;15.1;75.0
78696;SHT31;68030;51.980;5.646;2024-02-15T06:44:18;15.1;75.1
78696;SHT31;68030;51.980;5.646;2024-02-15T06:46:48;15.1;75.0
78696;SHT31;68030;51.980;5.646;2024-02-15T06:49:16;15.1;75.0
78696;SHT31;68030;51.980;5.646;2024-02-15T06:51:47;15.1;75.0
78696;SHT31;68030;51.980;5.646;2024-02-15T06:54:16;15.1;75.0
78696;SHT31;68030;51.980;5.646;2024-02-15T06:56:45;15.1;74.9
78696;SHT31;68030;51.980;5.646;2024-02-15T06:59:14;15.1;74.9
78696;SHT31;68030;51.980;5.646;2024-02-15T07:01:44;15.1;74.9
78696;SHT31;68030;51.980;5.646;2024-02-15T07:04:13;15.1;74.9
78696;SHT31;68030;51.980;5.646;2024-02-15T07:06:41;15.1;75.0
78696;SHT31;68030;51.980;5.646;2024-02-15T07:09:11;15.1;75.0
78696;SHT31;68030;51.980;5.646;2024-02-15T07:11:41;15.1;75.0
78696;SHT31;68030;51.980;5.646;2024-02-15T07:14:10;15.1;74.9
78696;SHT31;68030;51.980;5.646;2024-02-15T07:16:39;15.1;74.9
78696;SHT31;68030;51.980;5.646;2024-02-15T07:19:09;15.1;74.8
78696;SHT31;68030;51.980;5.646;2024-02-15T07:21:37;15.1;74.8
78696;SHT31;68030;51.980;5.646;2024-02-15T07:24:06;15.1;74.8
78696;SHT31;68030;51.980;5.646;2024-02-15T07:26:36;15.2;74.8
78696;SHT31;68030;51.980;5.646;2024-02-15T07:29:05;15.2;74.9
78696;SHT31;68030;51.980;5.646;2024-02-15T07:31:34;15.2;74.8
78696;SHT31;68030;51.980;5.646;2024-02-15T07:34:03;15.2;74.8
78696;SHT31;68030;51.980;5.646;2024-02-15T07:36:31;15.2;74.8
78696;SHT31;68030;51.980;5.646;2024-02-15T07:39:00;15.2;74.8
78696;SHT31;68030;51.980;5.646;2024-02-15T07:41:31;15.2;74.7
78696;SHT31;68030;51.980;5.646;2024-02-15T07:44:00;15.2;74.8
78696;SHT31;68030;51.980;5.646;2024-02-15T07:46:28;15.2;74.8
78696;SHT31;68030;51.980;5.646;2024-02-15T07:48:56;15.2;74.7
78696;SHT31;68030;51.980;5.646;2024-02-15T07:51:25;15.2;74.7
78696;SHT31;68030;51.980;5.646;2024-02-15T07:53:56;15.2;74.8
78696;SHT31;68030;51.980;5.646;2024-02-15T07:56:25;15.2;74.9
78696;SHT31;68030;51.980;5.646;2024-02-15T07:58:53;15.2;75.1
78696;SHT31;68030;51.980;5.646;2024-02-15T08:01:24;15.2;75.2
78696;SHT31;68030;51.980;5.646;2024-02-15T08:03:52;15.2;75.2
78696;SHT31;68030;51.980;5.646;2024-02-15T08:06:22;15.2;75.3
78696;SHT31;68030;51.980;5.646;2024-02-15T08:08:54;15.2;75.4
78696;SHT31;68030;51.980;5.646;2024-02-15T08:11:22;15.2;75.4
78696;SHT31;68030;51.980;5.646;2024-02-15T08:13:52;15.2;75.5
78696;SHT31;68030;51.980;5.646;2024-02-15T08:16:28;15.2;75.4
78696;SHT31;68030;51.980;5.646;2024-02-15T08:18:56;15.2;75.5
78696;SHT31;68030;51.980;5.646;2024-02-15T08:21:28;15.2;75.5
78696;SHT31;68030;51.980;5.646;2024-02-15T08:24:00;15.2;75.4
78696;SHT31;68030;51.980;5.646;2024-02-15T08:26:32;15.3;75.4
78696;SHT31;68030;51.980;5.646;2024-02-15T08:29:04;15.3;75.5
78696;SHT31;68030;51.980;5.646;2024-02-15T08:31:33;15.3;75.5
78696;SHT31;68030;51.980;5.646;2024-02-15T08:34:03;15.3;75.5
78696;SHT31;68030;51.980;5.646;2024-02-15T08:36:32;15.3;75.6
78696;SHT31;68030;51.980;5.646;2024-02-15T08:39:00;15.3;75.6
78696;SHT31;68030;51.980;5.646;2024-02-15T08:41:31;15.3;75.7
78696;SHT31;68030;51.980;5.646;2024-02-15T08:44:01;15.3;75.5
78696;SHT31;68030;51.980;5.646;2024-02-15T08:46:35;15.3;75.6
78696;SHT31;68030;51.980;5.646;2024-02-15T08:49:04;15.3;75.6
78696;SHT31;68030;51.980;5.646;2024-02-15T08:51:32;15.3;75.7
78696;SHT31;68030;51.980;5.646;2024-02-15T08:54:01;15.3;75.8
78696;SHT31;68030;51.980;5.646;2024-02-15T08:56:29;15.3;75.8
78696;SHT31;68030;51.980;5.646;2024-02-15T08:59:00;15.3;75.8
78696;SHT31;68030;51.980;5.646;2024-02-15T09:01:28;15.3;75.8
78696;SHT31;68030;51.980;5.646;2024-02-15T09:03:57;15.3;75.8
78696;SHT31;68030;51.980;5.646;2024-02-15T09:06:27;15.3;75.9
78696;SHT31;68030;51.980;5.646;2024-02-15T09:08:57;15.3;75.9
78696;SHT31;68030;51.980;5.646;2024-02-15T09:11:29;15.3;75.9
78696;SHT31;68030;51.980;5.646;2024-02-15T09:13:58;15.3;76.0
78696;SHT31;68030;51.980;5.646;2024-02-15T09:16:27;15.3;76.1
78696;SHT31;68030;51.980;5.646;2024-02-15T09:18:57;15.3;76.1
78696;SHT31;68030;51.980;5.646;2024-02-15T09:21:28;15.2;76.1
78696;SHT31;68030;51.980;5.646;2024-02-15T09:23:56;15.2;76.3
78696;SHT31;68030;51.980;5.646;2024-02-15T09:26:25;15.2;76.3
78696;SHT31;68030;51.980;5.646;2024-02-15T09:28:54;15.2;76.4
78696;SHT31;68030;51.980;5.646;2024-02-15T09:31:23;15.2;76.5
78696;SHT31;68030;51.980;5.646;2024-02-15T09:33:51;15.2;76.5
78696;SHT31;68030;51.980;5.646;2024-02-15T09:36:20;15.3;76.3
78696;SHT31;68030;51.980;5.646;2024-02-15T09:38:49;15.3;76.4
78696;SHT31;68030;51.980;5.646;2024-02-15T09:41:18;15.3;76.4
78696;SHT31;68030;51.980;5.646;2024-02-15T09:43:46;15.3;76.3
78696;SHT31;68030;51.980;5.646;2024-02-15T09:46:15;15.3;76.0
78696;SHT31;68030;51.980;5.646;2024-02-15T09:48:51;15.3;75.9
78696;SHT31;68030;51.980;5.646;2024-02-15T09:51:27;15.3;75.9
78696;SHT31;68030;51.980;5.646;2024-02-15T09:53:57;15.3;76.0
78696;SHT31;68030;51.980;5.646;2024-02-15T09:56:28;15.4;76.0
78696;SHT31;68030;51.980;5.646;2024-02-15T09:59:01;15.4;75.8
78696;SHT31;68030;51.980;5.646;2024-02-15T10:01:32;15.4;75.5
78696;SHT31;68030;51.980;5.646;2024-02-15T10:04:05;15.4;75.4
78696;SHT31;68030;51.980;5.646;2024-02-15T10:06:35;15.4;75.2
78696;SHT31;68030;51.980;5.646;2024-02-15T10:11:08;15.5;75.0
78696;SHT31;68030;51.980;5.646;2024-02-15T10:13:37;15.5;74.8
78696;SHT31;68030;51.980;5.646;2024-02-15T10:16:16;15.5;74.7
78696;SHT31;68030;51.980;5.646;2024-02-15T10:18:45;15.5;74.5
78696;SHT31;68030;51.980;5.646;2024-02-15T10:21:26;15.5;74.3
78696;SHT31;68030;51.980;5.646;2024-02-15T10:24:09;15.5;74.4
78696;SHT31;68030;51.980;5.646;2024-02-15T10:26:38;15.5;74.6
78696;SHT31;68030;51.980;5.646;2024-02-15T10:29:08;15.6;74.4
78696;SHT31;68030;51.980;5.646;2024-02-15T10:31:54;15.6;74.3
78696;SHT31;68030;51.980;5.646;2024-02-15T10:34:25;15.6;74.3
78696;SHT31;68030;51.980;5.646;2024-02-15T10:36:55;15.6;74.3
78696;SHT31;68030;51.980;5.646;2024-02-15T10:39:24;15.7;74.3
78696;SHT31;68030;51.980;5.646;2024-02-15T10:41:54;15.7;74.2
78696;SHT31;68030;51.980;5.646;2024-02-15T10:44:24;15.8;74.0
78696;SHT31;68030;51.980;5.646;2024-02-15T10:46:53;15.8;73.9
78696;SHT31;68030;51.980;5.646;2024-02-15T10:49:24;15.8;73.8
78696;SHT31;68030;51.980;5.646;2024-02-15T10:51:58;15.9;73.6
78696;SHT31;68030;51.980;5.646;2024-02-15T10:54:46;15.9;73.6
78696;SHT31;68030;51.980;5.646;2024-02-15T10:57:20;15.9;73.4
78696;SHT31;68030;51.980;5.646;2024-02-15T10:59:54;16.0;73.3
78696;SHT31;68030;51.980;5.646;2024-02-15T11:02:29;16.1;73.3
78696;SHT31;68030;51.980;5.646;2024-02-15T11:05:02;16.1;72.9
78696;SHT31;68030;51.980;5.646;2024-02-15T11:07:36;16.2;72.2
78696;SHT31;68030;51.980;5.646;2024-02-15T11:10:06;16.2;71.9
78696;SHT31;68030;51.980;5.646;2024-02-15T11:12:37;16.3;71.6
78696;SHT31;68030;51.980;5.646;2024-02-15T11:15:09;16.3;71.5
78696;SHT31;68030;51.980;5.646;2024-02-15T11:17:48;16.4;71.1
78696;SHT31;68030;51.980;5.646;2024-02-15T11:20:48;16.4;70.9
78696;SHT31;68030;51.980;5.646;2024-02-15T11:23:26;16.5;71.2
78696;SHT31;68030;51.980;5.646;2024-02-15T11:25:57;16.5;70.9
78696;SHT31;68030;51.980;5.646;2024-02-15T11:28:40;16.6;70.7
78696;SHT31;68030;51.980;5.646;2024-02-15T11:37:07;16.7;70.3
78696;SHT31;68030;51.980;5.646;2024-02-15T11:39:41;16.8;70.2
78696;SHT31;68030;51.980;5.646;2024-02-15T11:42:28;16.8;70.2
78696;SHT31;68030;51.980;5.646;2024-02-15T11:45:05;16.9;69.9
78696;SHT31;68030;51.980;5.646;2024-02-15T11:47:38;16.9;69.4
78696;SHT31;68030;51.980;5.646;2024-02-15T11:50:10;17.0;69.3
78696;SHT31;68030;51.980;5.646;2024-02-15T11:52:41;17.0;69.6
78696;SHT31;68030;51.980;5.646;2024-02-15T11:55:11;17.0;69.2
78696;SHT31;68030;51.980;5.646;2024-02-15T11:57:41;17.1;69.2
78696;SHT31;68030;51.980;5.646;2024-02-15T12:00:21;17.1;68.7
78696;SHT31;68030;51.980;5.646;2024-02-15T12:04:23;17.2;68.8
78696;SHT31;68030;51.980;5.646;2024-02-15T12:07:09;17.3;68.9
78696;SHT31;68030;51.980;5.646;2024-02-15T12:10:00;17.4;68.5
78696;SHT31;68030;51.980;5.646;2024-02-15T12:12:54;17.5;67.7
78696;SHT31;68030;51.980;5.646;2024-02-15T12:16:41;17.6;67.5
78696;SHT31;68030;51.980;5.646;2024-02-15T12:19:26;17.6;67.5
78696;SHT31;68030;51.980;5.646;2024-02-15T12:21:57;17.7;67.2
78696;SHT31;68030;51.980;5.646;2024-02-15T12:24:26;17.8;66.3
78696;SHT31;68030;51.980;5.646;2024-02-15T12:27:01;17.9;66.7
78696;SHT31;68030;51.980;5.646;2024-02-15T12:29:32;17.9;66.1
78696;SHT31;68030;51.980;5.646;2024-02-15T12:32:02;18.0;66.2
78696;SHT31;68030;51.980;5.646;2024-02-15T12:34:33;18.0;66.3
78696;SHT31;68030;51.980;5.646;2024-02-15T12:37:10;18.0;66.1
78696;SHT31;68030;51.980;5.646;2024-02-15T12:39:40;18.1;66.0
78696;SHT31;68030;51.980;5.646;2024-02-15T12:42:11;18.2;66.2
78696;SHT31;68030;51.980;5.646;2024-02-15T12:44:44;18.2;65.8
78696;SHT31;68030;51.980;5.646;2024-02-15T12:47:22;18.3;65.6
78696;SHT31;68030;51.980;5.646;2024-02-15T12:49:51;18.3;65.5
78696;SHT31;68030;51.980;5.646;2024-02-15T12:52:37;18.4;65.3
78696;SHT31;68030;51.980;5.646;2024-02-15T12:55:12;18.4;65.1
78696;SHT31;68030;51.980;5.646;2024-02-15T12:57:43;18.5;64.9
78696;SHT31;68030;51.980;5.646;2024-02-15T13:00:18;18.5;64.3
78696;SHT31;68030;51.980;5.646;2024-02-15T13:02:48;18.6;64.4
78696;SHT31;68030;51.980;5.646;2024-02-15T13:05:19;18.6;63.7
78696;SHT31;68030;51.980;5.646;2024-02-15T13:07:49;18.7;63.9
78696;SHT31;68030;51.980;5.646;2024-02-15T13:10:18;18.7;63.8
78696;SHT31;68030;51.980;5.646;2024-02-15T13:12:48;18.8;63.2
78696;SHT31;68030;51.980;5.646;2024-02-15T13:15:16;18.8;62.5
78696;SHT31;68030;51.980;5.646;2024-02-15T13:17:48;18.9;62.4
78696;SHT31;68030;51.980;5.646;2024-02-15T13:20:18;18.9;62.1
78696;SHT31;68030;51.980;5.646;2024-02-15T13:22:54;18.9;62.1
78696;SHT31;68030;51.980;5.646;2024-02-15T13:25:26;18.9;62.6
78696;SHT31;68030;51.980;5.646;2024-02-15T13:27:55;19.0;62.4
78696;SHT31;68030;51.980;5.646;2024-02-15T13:30:25;19.0;62.6
78696;SHT31;68030;51.980;5.646;2024-02-15T13:32:54;19.0;62.8
78696;SHT31;68030;51.980;5.646;2024-02-15T13:35:23;19.1;61.9
78696;SHT31;68030;51.980;5.646;2024-02-15T13:37:53;19.1;61.5
78696;SHT31;68030;51.980;5.646;2024-02-15T13:40:25;19.1;61.5
78696;SHT31;68030;51.980;5.646;2024-02-15T13:42:55;19.2;61.3
78696;SHT31;68030;51.980;5.646;2024-02-15T13:45:28;19.2;60.8
78696;SHT31;68030;51.980;5.646;2024-02-15T13:48:00;19.2;60.9
78696;SHT31;68030;51.980;5.646;2024-02-15T13:50:31;19.2;61.3
78696;SHT31;68030;51.980;5.646;2024-02-15T13:53:00;19.3;61.3
78696;SHT31;68030;51.980;5.646;2024-02-15T13:55:30;19.3;61.3
78696;SHT31;68030;51.980;5.646;2024-02-15T13:57:59;19.3;60.3
78696;SHT31;68030;51.980;5.646;2024-02-15T14:00:28;19.3;60.3
78696;SHT31;68030;51.980;5.646;2024-02-15T14:03:01;19.3;60.9
78696;SHT31;68030;51.980;5.646;2024-02-15T14:05:32;19.2;60.3
78696;SHT31;68030;51.980;5.646;2024-02-15T14:08:02;19.2;59.8
78696;SHT31;68030;51.980;5.646;2024-02-15T14:10:33;19.2;60.5
78696;SHT31;68030;51.980;5.646;2024-02-15T14:13:04;19.1;61.3
78696;SHT31;68030;51.980;5.646;2024-02-15T14:15:35;19.1;60.7
78696;SHT31;68030;51.980;5.646;2024-02-15T14:18:07;19.1;61.3
78696;SHT31;68030;51.980;5.646;2024-02-15T14:20:37;19.1;61.2
78696;SHT31;68030;51.980;5.646;2024-02-15T14:23:05;19.1;61.6
78696;SHT31;68030;51.980;5.646;2024-02-15T14:25:40;19.1;61.3
78696;SHT31;68030;51.980;5.646;2024-02-15T14:28:09;19.1;60.8
78696;SHT31;68030;51.980;5.646;2024-02-15T14:30:39;19.0;61.1
78696;SHT31;68030;51.980;5.646;2024-02-15T14:33:24;19.0;61.3
78696;SHT31;68030;51.980;5.646;2024-02-15T14:35:53;19.0;61.6
78696;SHT31;68030;51.980;5.646;2024-02-15T14:38:24;18.9;61.7
78696;SHT31;68030;51.980;5.646;2024-02-15T14:40:53;18.9;62.1
78696;SHT31;68030;51.980;5.646;2024-02-15T14:43:23;18.9;62.5
78696;SHT31;68030;51.980;5.646;2024-02-15T14:45:54;18.9;61.8
78696;SHT31;68030;51.980;5.646;2024-02-15T14:48:23;18.9;62.0
78696;SHT31;68030;51.980;5.646;2024-02-15T14:50:52;18.9;62.2
78696;SHT31;68030;51.980;5.646;2024-02-15T14:53:22;18.9;62.2
78696;SHT31;68030;51.980;5.646;2024-02-15T14:55:50;18.9;62.0
78696;SHT31;68030;51.980;5.646;2024-02-15T14:58:19;18.9;62.0
78696;SHT31;68030;51.980;5.646;2024-02-15T15:00:49;18.9;61.9
78696;SHT31;68030;51.980;5.646;2024-02-15T15:03:19;18.9;61.7
78696;SHT31;68030;51.980;5.646;2024-02-15T15:05:50;18.9;61.8
78696;SHT31;68030;51.980;5.646;2024-02-15T15:08:35;18.8;61.8
78696;SHT31;68030;51.980;5.646;2024-02-15T15:11:22;18.8;62.0
78696;SHT31;68030;51.980;5.646;2024-02-15T15:14:08;18.8;61.9
78696;SHT31;68030;51.980;5.646;2024-02-15T15:16:37;18.8;62.4
78696;SHT31;68030;51.980;5.646;2024-02-15T15:19:06;18.8;62.1
78696;SHT31;68030;51.980;5.646;2024-02-15T15:21:34;18.8;62.1
78696;SHT31;68030;51.980;5.646;2024-02-15T15:24:03;18.8;62.4
78696;SHT31;68030;51.980;5.646;2024-02-15T15:26:31;18.8;62.1
78696;SHT31;68030;51.980;5.646;2024-02-15T15:29:00;18.7;61.8
78696;SHT31;68030;51.980;5.646;2024-02-15T15:31:31;18.7;62.1
78696;SHT31;68030;51.980;5.646;2024-02-15T15:34:01;18.7;62.2
78696;SHT31;68030;51.980;5.646;2024-02-15T15:36:31;18.7;62.2
78696;SHT31;68030;51.980;5.646;2024-02-15T15:38:59;18.6;62.1
78696;SHT31;68030;51.980;5.646;2024-02-15T15:41:34;18.6;62.3
78696;SHT31;68030;51.980;5.646;2024-02-15T15:44:03;18.6;62.5
78696;SHT31;68030;51.980;5.646;2024-02-15T15:46:32;18.5;62.4
78696;SHT31;68030;51.980;5.646;2024-02-15T15:49:03;18.5;62.7
78696;SHT31;68030;51.980;5.646;2024-02-15T15:51:32;18.5;62.5
78696;SHT31;68030;51.980;5.646;2024-02-15T15:54:01;18.4;62.5
78696;SHT31;68030;51.980;5.646;2024-02-15T15:56:32;18.4;62.7
78696;SHT31;68030;51.980;5.646;2024-02-15T15:59:00;18.4;63.0
78696;SHT31;68030;51.980;5.646;2024-02-15T16:01:32;18.3;63.0
78696;SHT31;68030;51.980;5.646;2024-02-15T16:04:02;18.3;63.1
78696;SHT31;68030;51.980;5.646;2024-02-15T16:06:31;18.3;63.0
78696;SHT31;68030;51.980;5.646;2024-02-15T16:09:00;18.3;63.1
78696;SHT31;68030;51.980;5.646;2024-02-15T16:11:30;18.2;63.2
78696;SHT31;68030;51.980;5.646;2024-02-15T16:14:01;18.2;63.2
78696;SHT31;68030;51.980;5.646;2024-02-15T16:16:32;18.2;63.3
78696;SHT31;68030;51.980;5.646;2024-02-15T16:19:00;18.1;63.4
78696;SHT31;68030;51.980;5.646;2024-02-15T16:21:30;18.1;63.4
78696;SHT31;68030;51.980;5.646;2024-02-15T16:23:59;18.1;63.6
78696;SHT31;68030;51.980;5.646;2024-02-15T16:26:27;18.0;63.4
78696;SHT31;68030;51.980;5.646;2024-02-15T16:28:56;18.0;63.4
78696;SHT31;68030;51.980;5.646;2024-02-15T16:31:25;18.0;63.5
78696;SHT31;68030;51.980;5.646;2024-02-15T16:33:53;17.9;63.0
78696;SHT31;68030;51.980;5.646;2024-02-15T16:36:23;17.9;62.7
78696;SHT31;68030;51.980;5.646;2024-02-15T16:38:51;17.9;62.6